Webcam

2017/07/28 00:20 EBBR 280020Z 23009KT CAVOK 15/11 Q1009 NOSIG

Webcam image

--- Refresh now ---